Flight Track Log - Related Links

Times and Time Zones

All times are in EDT time to prevent confusion due to time zone crossing. See the SWA1729 flight status page for this flight to view local times or setup timezone preferences in your user account.

Time Position Orientation Groundspeed Altitude Reporting Facility
EDT Latitude Longitude Course Direction KTS MPH feet Rate Location/Type
Tue 09:53:47 PM 29.6008 -95.3244 221° Southwest 208 239 2,600  Level Houston Center
Tue 09:54:09 PM 29.5933 -95.3403 241° Southwest 205 236 3,100 2,262 Climbing Houston Center
Tue 09:54:48 PM 29.5714 -95.3931 244° Southwest 261 300 4,900 2,852 Climbing Houston Center
Tue 09:55:10 PM 29.5642 -95.4125 247° West 242 278 6,000 3,614 Climbing Houston Center
Tue 09:56:11 PM 29.5675 -95.4914 273° West 273 314 9,900 3,148 Climbing Houston Center
Tue 09:57:12 PM 29.6117 -95.5744 301° West 303 349 12,400 2,902 Climbing Houston Center
Tue 09:58:13 PM 29.6592 -95.6672 301° West 331 381 15,800 3,148 Climbing Houston Center
Tue 09:59:14 PM 29.7075 -95.7625 300° West 342 394 18,800 2,754 Climbing Houston Center
Tue 10:00:15 PM 29.7575 -95.8583 301° West 348 400 21,400 2,557 Climbing Houston Center
Tue 10:01:16 PM 29.7997 -95.9639 295° West 359 413 24,000 2,732 Climbing Houston Center
Tue 10:02:18 PM 29.8286 -96.0950 284° West 354 407 27,000 2,488 Climbing Houston Center
Tue 10:03:19 PM 29.8539 -96.2036 285° West 353 406 29,100 1,820 Climbing Houston Center
Tue 10:04:20 PM 29.8794 -96.3150 285° West 360 414 30,700 1,377 Climbing Houston Center
Tue 10:05:21 PM 29.9050 -96.4289 285° West 368 423 31,900 1,131 Climbing Houston Center
Tue 10:06:22 PM 29.9322 -96.5478 285° West 382 440 33,000 1,475 Climbing Houston Center
Tue 10:07:23 PM 29.9589 -96.6683 284° West 388 447 34,900 1,475 Climbing Houston Center
Tue 10:08:24 PM 29.9853 -96.7844 285° West 379 436 36,000 541 Climbing Houston Center
Tue 10:09:25 PM 30.0111 -96.9033 284° West 383 441 36,000  Level Houston Center
Tue 10:10:26 PM 30.0431 -97.0453 285° West 383 441 36,000  Level Houston Center
Tue 10:11:27 PM 30.0697 -97.1636 285° West 382 440 36,000  Level Houston Center
Tue 10:12:28 PM 30.0961 -97.2842 284° West 384 442 36,000  Level Houston Center
Tue 10:13:29 PM 30.1228 -97.4042 284° West 382 440 36,000  Level Houston Center
Tue 10:14:30 PM 30.1492 -97.5242 284° West 380 437 36,000  Level Houston Center
Tue 10:15:31 PM 30.1747 -97.6458 284° West 382 440 36,000  Level Houston Center
Tue 10:16:32 PM 30.2008 -97.7658 284° West 381 438 36,000  Level Houston Center
Tue 10:17:34 PM 30.2272 -97.8872 284° West 382 440 36,000  Level Houston Center
Tue 10:18:35 PM 30.2528 -98.0128 283° West 375 432 36,000  Level Houston Center
Tue 10:19:36 PM 30.2786 -98.1325 284° West 382 440 36,000  Level Houston Center
Tue 10:20:37 PM 30.3042 -98.2533 284° West 386 444 36,000  Level Houston Center
Tue 10:21:38 PM 30.3289 -98.3717 284° West 389 448 36,000  Level Houston Center
Tue 10:22:39 PM 30.3556 -98.4939 284° West 388 447 36,000  Level Houston Center
Tue 10:23:40 PM 30.3808 -98.6158 284° West 388 447 36,000  Level Houston Center
Tue 10:24:41 PM 30.4064 -98.7406 283° West 393 452 36,000  Level Houston Center
Tue 10:25:42 PM 30.4333 -98.8647 284° West 394 453 36,000  Level Houston Center
Tue 10:26:43 PM 30.4592 -98.9892 284° West 394 453 36,000  Level Houston Center
Tue 10:27:44 PM 30.4839 -99.1144 283° West 395 455 36,000  Level Houston Center
Tue 10:28:45 PM 30.5081 -99.2306 284° West 396 456 36,000  Level Houston Center
Tue 10:29:46 PM 30.5383 -99.3783 283° West 394 453 36,000  Level Houston Center
Tue 10:30:47 PM 30.5639 -99.5019 284° West 396 456 36,000  Level Houston Center
Tue 10:31:48 PM 30.5883 -99.6261 283° West 398 458 36,000  Level Houston Center
Tue 10:32:49 PM 30.6125 -99.7475 283° West 390 449 36,000  Level Houston Center
Tue 10:33:50 PM 30.6369 -99.8697 283° West 391 450 36,000  Level Houston Center
Tue 10:34:51 PM 30.6611 -99.9919 283° West 390 449 36,000  Level Houston Center
Tue 10:35:52 PM 30.6856 -100.1136 283° West 389 448 36,000  Level Houston Center
Tue 10:36:54 PM 30.7075 -100.2353 282° West 388 447 36,000  Level Houston Center
Tue 10:37:55 PM 30.7322 -100.3572 283° West 390 449 36,000  Level Houston Center
Tue 10:38:56 PM 30.7611 -100.5019 283° West 388 447 36,000  Level Houston Center
Tue 10:39:57 PM 30.7839 -100.6292 282° West 404 465 36,000  Level Houston Center
Tue 10:40:58 PM 30.8072 -100.7528 282° West 396 456 36,000  Level Houston Center
Tue 10:41:59 PM 30.8306 -100.8761 282° West 394 453 36,000  Level Houston Center
Tue 10:43:00 PM 30.8550 -101.0022 283° West 402 463 36,000  Level Houston Center
Tue 10:44:01 PM 30.8772 -101.1244 282° West 394 453 36,000  Level Houston Center
Tue 10:45:02 PM 30.9022 -101.2450 284° West 387 445 36,000  Level Houston Center
Tue 10:46:03 PM 30.9264 -101.3700 283° West 392 451 36,000  Level Houston Center
Tue 10:46:31 PM 30.9333 -101.4217 279° West 389 448 36,000  Level Albuquerque Center
Tue 10:47:32 PM 30.9558 -101.5456 282° West 389 448 36,000  Level Albuquerque Center
Tue 10:48:33 PM 30.9831 -101.6942 282° West 392 451 36,000  Level Albuquerque Center
Tue 10:49:34 PM 31.0058 -101.8194 282° West 393 452 36,000  Level Albuquerque Center
Tue 10:50:35 PM 31.0250 -101.9264 282° West 396 456 36,000  Level Albuquerque Center
Tue 10:51:36 PM 31.0525 -102.0806 282° West 402 463 36,000  Level Albuquerque Center
Tue 10:52:38 PM 31.0747 -102.2072 282° West 399 459 36,000  Level Albuquerque Center
Tue 10:53:39 PM 31.0967 -102.3331 282° West 397 457 36,000  Level Albuquerque Center
Tue 10:54:40 PM 31.1197 -102.4608 282° West 400 460 36,000  Level Albuquerque Center
Tue 10:55:41 PM 31.1408 -102.5867 281° West 397 457 36,000  Level Albuquerque Center
Tue 10:56:42 PM 31.1625 -102.7139 281° West 396 456 36,000  Level Albuquerque Center
Tue 10:57:44 PM 31.1850 -102.8417 282° West 399 459 36,000  Level Albuquerque Center
Tue 10:58:45 PM 31.2069 -102.9706 281° West 401 461 36,000  Level Albuquerque Center
Tue 10:59:46 PM 31.2286 -103.0967 281° West 400 460 36,000  Level Albuquerque Center
Tue 11:00:47 PM 31.2500 -103.2219 281° West 397 457 36,000  Level Albuquerque Center
Tue 11:01:48 PM 31.2708 -103.3469 281° West 393 452 36,000  Level Albuquerque Center
Tue 11:02:50 PM 31.2961 -103.4950 281° West 389 448 36,000  Level Albuquerque Center
Tue 11:03:51 PM 31.3164 -103.6172 281° West 386 444 36,000  Level Albuquerque Center
Tue 11:04:52 PM 31.3353 -103.7394 280° West 383 441 36,000  Level Albuquerque Center
Tue 11:05:53 PM 31.3528 -103.8447 281° West 385 443 36,000  Level Albuquerque Center
Tue 11:06:55 PM 31.3781 -103.9917 281° West 385 443 36,000  Level Albuquerque Center
Tue 11:07:56 PM 31.3986 -104.1142 281° West 385 443 36,000  Level Albuquerque Center
Tue 11:08:57 PM 31.4181 -104.2367 281° West 385 443 36,000  Level Albuquerque Center
Tue 11:09:59 PM 31.4375 -104.3572 281° West 381 438 36,000  Level Albuquerque Center
Tue 11:11:00 PM 31.4558 -104.4797 280° West 382 440 36,000  Level Albuquerque Center
Tue 11:12:01 PM 31.4686 -104.6025 277° West 382 440 36,000 -49 Level Albuquerque Center
Tue 11:13:03 PM 31.4819 -104.7244 277° West 380 437 35,900 -1,805 Descending Albuquerque Center
Tue 11:14:04 PM 31.4964 -104.8708 277° West 379 436 32,300 -3,246 Descending Albuquerque Center
Tue 11:15:05 PM 31.5089 -104.9942 277° West 382 440 29,300 -2,732 Descending Albuquerque Center
Tue 11:16:07 PM 31.5206 -105.1133 277° West 374 430 26,700 -2,488 Descending Albuquerque Center
Tue 11:17:08 PM 31.5328 -105.2286 277° West 362 417 24,200 -2,361 Descending Albuquerque Center
Tue 11:18:09 PM 31.5436 -105.3419 276° West 355 409 21,900 -2,244 Descending Albuquerque Center
Tue 11:19:11 PM 31.5542 -105.4478 277° West 333 383 19,600 -2,244 Descending Albuquerque Center
Tue 11:20:12 PM 31.5642 -105.5536 276° West 330 380 17,300 -2,430 Descending Albuquerque Center
Tue 11:20:30 PM 31.5656 -105.5958 272° West 329 379 16,400 -2,323 Descending Albuquerque Center
Tue 11:21:14 PM 31.5744 -105.6619 279° West 333 383 14,900 -2,361 Descending Albuquerque Center
Tue 11:21:31 PM 31.5775 -105.7050 275° West 334 384 14,000 -2,754 Descending Albuquerque Center
Tue 11:22:15 PM 31.5922 -105.7853 282° West 323 372 12,100 -2,066 Descending Albuquerque Center
Tue 11:22:32 PM 31.6003 -105.8042 297° West 335 386 11,900 -1,377 Descending Albuquerque Center
Tue 11:23:16 PM 31.6322 -105.8750 298° West 309 356 10,700 -1,600 Descending Albuquerque Center
Tue 11:23:32 PM 31.6381 -105.8919 292° West 301 346 10,300 -1,452 Descending Albuquerque Center
Tue 11:24:18 PM 31.6661 -105.9600 296° West 288 331 9,200 -1,377 Descending Albuquerque Center
Tue 11:24:33 PM 31.6733 -105.9781 295° West 287 330 8,900 -1,475 Descending Albuquerque Center
Tue 11:25:19 PM 31.6961 -106.0397 293° West 270 311 7,700 -778 Descending Albuquerque Center
Tue 11:26:21 PM 31.7272 -106.1167 295° West 262 302 7,500 -146 Descending Albuquerque Center
Tue 11:27:22 PM 31.7644 -106.1878 302° West 258 297 7,400 -295 Descending Albuquerque Center
Tue 11:28:23 PM 31.7936 -106.2389 304° West 187 215 6,900 -1,073 Descending Albuquerque Center
Tue 11:29:25 PM 31.7967 -106.2839 275° West 141 162 5,200 -1,268 Descending Albuquerque Center
Tue 11:30:26 PM 31.7994 -106.3353 274° West 133 153 4,300 -634 Descending Albuquerque Center
Tue 11:31:28 PM 31.8022 -106.3778 274° West 131 151 3,900 -387 Descending Albuquerque Center
Tue 11:33:00 PM 31.8000 -106.3667 270° West  Level FlightAware Approximate
Tue 11:40:00 PM 31.8072 -106.3764 270° West  Level Estimated
Tue 11:41:00 PM 31.8072 -106.3764 270° West  Level Estimated
Tue 11:42:00 PM 31.8072 -106.3764 270° West  Level Estimated
Tue 11:43:00 PM 31.8072 -106.3764 270° West  Level Estimated
Tue 11:44:00 PM 31.8072 -106.3764 270° West  Level Estimated

Login

Don't have an account? Register now (free) for customized features, flight alerts, and more!